Time;durP1;ratioP1;P1;durP2;ratioP2;P2;SDS_P1;SDS_P2;PMS_P1;PMS_P2;Temp;Humidity;BMP_temperature;BMP_pressure;BME280_temperature;BME280_humidity;BME280_pressure;Samples;Min_cycle;Max_cycle;Signal;HPM_P1;HPM_P2
2022/10/16 00:00:58;;;;;;;8.17;2.53;;;;;;;13.26;100.00;96215.41;6183639;23;20406;-82
2022/10/16 00:03:24;;;;;;;6.30;2.30;;;;;;;13.33;100.00;96217.44;6140612;23;20404;-82
2022/10/16 00:05:59;;;;;;;3.77;2.30;;;;;;;13.21;100.00;96205.03;6160584;23;20598;-82
2022/10/16 00:08:27;;;;;;;2.70;1.77;;;;;;;13.37;100.00;96220.19;6159883;23;20408;-81
2022/10/16 00:11:03;;;;;;;2.43;2.03;;;;;;;13.41;100.00;96224.47;6159020;23;20400;-82
2022/10/16 00:13:31;;;;;;;6.67;1.93;;;;;;;12.34;100.00;96076.09;6190101;23;20458;-81
2022/10/16 00:16:00;;;;;;;3.03;1.60;;;;;;;13.45;100.00;96225.31;6155509;23;20400;-80
2022/10/16 00:18:27;;;;;;;3.73;2.10;;;;;;;13.37;100.00;96239.56;6179498;23;20487;-82
2022/10/16 00:20:55;;;;;;;1.50;1.40;;;;;;;13.05;100.00;96184.94;6180508;23;20414;-81
2022/10/16 00:23:26;;;;;;;2.70;2.20;;;;;;;13.32;100.00;96232.63;6205702;23;20423;-82
2022/10/16 00:26:02;;;;;;;2.20;1.83;;;;;;;13.44;100.00;96237.03;6205014;23;20760;-81
2022/10/16 00:28:30;;;;;;;2.20;1.30;;;;;;;13.46;100.00;96247.31;6180807;23;20396;-81
2022/10/16 00:30:57;;;;;;;3.37;1.57;;;;;;;13.16;100.00;96207.19;6180160;23;20415;-81
2022/10/16 00:33:24;;;;;;;1.73;1.63;;;;;;;13.39;100.00;96237.31;6173048;23;20400;-80
2022/10/16 00:35:51;;;;;;;1.77;1.67;;;;;;;13.12;100.00;96201.03;6182239;23;20411;-81
2022/10/16 00:38:17;;;;;;;4.13;1.80;;;;;;;13.17;100.00;96211.38;6159445;23;20475;-81
2022/10/16 00:40:44;;;;;;;2.30;2.10;;;;;;;13.10;100.00;96200.63;6158356;23;20465;-81
2022/10/16 00:43:38;;;;;;;1.87;1.73;;;;;;;13.18;100.00;96207.59;6158173;23;20412;-81
2022/10/16 00:46:27;;;;;;;4.37;1.80;;;;;;;13.20;100.00;96216.78;6156101;23;20458;-81
2022/10/16 00:49:01;;;;;;;4.13;2.10;;;;;;;13.15;100.00;96208.31;6181718;23;20435;-81
2022/10/16 00:51:40;;;;;;;1.70;1.60;;;;;;;13.21;100.00;96220.22;6182023;23;20372;-81
2022/10/16 00:54:13;;;;;;;2.60;1.77;;;;;;;13.06;100.00;96208.47;6156455;23;20442;-81
2022/10/16 00:56:41;;;;;;;3.23;2.03;;;;;;;13.16;100.00;96209.84;6157091;23;20454;-81
2022/10/16 00:59:16;;;;;;;2.03;1.83;;;;;;;13.23;100.00;96224.09;6156839;23;20427;-81
2022/10/16 01:01:42;;;;;;;1.90;1.73;;;;;;;13.15;100.00;96213.63;6156593;23;20434;-80
2022/10/16 01:04:09;;;;;;;1.63;1.53;;;;;;;12.99;100.00;96187.09;6155908;23;20453;-81
2022/10/16 01:06:41;;;;;;;2.87;2.17;;;;;;;13.03;100.00;96198.56;6156196;23;20416;-81
2022/10/16 01:09:14;;;;;;;4.20;2.00;;;;;;;13.33;100.00;96222.75;6156044;23;20980;-81
2022/10/16 01:12:19;;;;;;;2.77;1.90;;;;;;;13.37;100.00;96234.25;6181194;23;20388;-81
2022/10/16 01:14:54;;;;;;;2.27;1.77;;;;;;;13.15;100.00;96219.69;6181100;23;20388;-80
2022/10/16 01:17:20;;;;;;;2.57;2.37;;;;;;;12.79;100.00;96178.28;6155895;23;20467;-80
2022/10/16 01:20:11;;;;;;;1.73;1.63;;;;;;;12.82;100.00;96193.53;6157174;23;20495;-81
2022/10/16 01:23:13;;;;;;;2.23;2.03;;;;;;;12.98;100.00;96220.81;6155540;23;20456;-80
2022/10/16 01:26:03;;;;;;;3.33;2.30;;;;;;;12.98;100.00;96231.44;6128159;23;20466;-81
2022/10/16 01:28:39;;;;;;;2.47;2.27;;;;;;;12.92;100.00;96224.84;6180479;23;20483;-80
2022/10/16 01:31:09;;;;;;;2.30;2.10;;;;;;;12.69;100.00;96181.47;6180338;23;20387;-81
2022/10/16 01:33:43;;;;;;;3.37;2.93;;;;;;;12.70;100.00;96201.59;6180745;23;20507;-81
2022/10/16 01:36:18;;;;;;;2.13;1.93;;;;;;;12.78;100.00;96219.19;6132115;23;20478;-83
2022/10/16 01:38:49;;;;;;;2.53;2.33;;;;;;;12.76;100.00;96220.66;6158332;23;20885;-80
2022/10/16 01:41:24;;;;;;;3.23;2.63;;;;;;;12.73;100.00;96212.28;6156695;23;20403;-80
2022/10/16 01:44:04;;;;;;;3.57;2.50;;;;;;;12.64;100.00;96192.31;6155854;23;20382;-81
2022/10/16 01:46:31;;;;;;;2.13;1.93;;;;;;;12.83;100.00;96221.59;6156855;23;20396;-81
2022/10/16 01:49:01;;;;;;;2.30;2.10;;;;;;;12.71;100.00;96189.84;6156258;23;20472;-81
2022/10/16 01:51:29;;;;;;;2.80;2.07;;;;;;;12.65;100.00;96185.91;6181266;23;20432;-80
2022/10/16 01:54:00;;;;;;;4.03;2.20;;;;;;;12.86;100.00;96220.91;6132037;23;20442;-80
2022/10/16 01:56:28;;;;;;;2.70;2.20;;;;;;;12.85;100.00;96230.00;6158530;23;20862;-81
2022/10/16 01:59:03;;;;;;;2.30;2.10;;;;;;;12.86;100.00;96231.53;6155792;23;20435;-81
2022/10/16 02:01:33;;;;;;;2.60;2.47;;;;;;;12.83;100.00;96237.53;6179683;23;20442;-81
2022/10/16 02:04:24;;;;;;;2.63;2.20;;;;;;;12.81;100.00;96231.00;6154966;23;20423;-81
2022/10/16 02:06:52;;;;;;;4.83;3.00;;;;;;;11.71;100.00;96067.28;6156135;23;20394;-81
2022/10/16 02:09:19;;;;;;;6.80;2.83;;;;;;;12.56;100.00;96198.59;6155067;23;20428;-81
2022/10/16 02:11:46;;;;;;;2.47;2.00;;;;;;;12.25;100.00;96155.00;6179185;23;20408;-81
2022/10/16 02:14:13;;;;;;;2.83;2.53;;;;;;;12.64;100.00;96202.94;6179581;23;20851;-80
2022/10/16 02:16:43;;;;;;;2.10;1.93;;;;;;;12.75;100.00;96224.41;6154969;23;20396;-80
2022/10/16 02:19:14;;;;;;;3.17;2.30;;;;;;;12.53;100.00;96194.72;6130340;23;20454;-81
2022/10/16 02:21:51;;;;;;;2.97;2.10;;;;;;;12.62;100.00;96208.59;6179339;23;20402;-81
2022/10/16 02:24:33;;;;;;;2.80;2.60;;;;;;;12.73;100.00;96230.06;6155139;23;20442;-81
2022/10/16 02:27:10;;;;;;;7.60;2.37;;;;;;;12.70;100.00;96228.09;6179516;23;20411;-80
2022/10/16 02:29:44;;;;;;;3.40;2.93;;;;;;;12.72;100.00;96239.16;6129990;23;20538;-81
2022/10/16 02:32:14;;;;;;;2.60;2.27;;;;;;;12.78;100.00;96253.69;6179689;23;20374;-81
2022/10/16 02:34:42;;;;;;;3.70;1.97;;;;;;;12.52;100.00;96206.44;6154510;23;20806;-81
2022/10/16 02:37:10;;;;;;;3.17;2.10;;;;;;;12.66;100.00;96245.81;6154228;23;20815;-80
2022/10/16 02:39:38;;;;;;;2.33;2.13;;;;;;;12.44;100.00;96218.00;6154027;23;20526;-80
2022/10/16 02:42:04;;;;;;;2.40;2.03;;;;;;;12.54;100.00;96212.16;6154687;23;20878;-80
2022/10/16 02:44:31;;;;;;;3.70;2.10;;;;;;;12.63;100.00;96222.63;6154347;23;20515;-80
2022/10/16 02:46:57;;;;;;;2.33;2.13;;;;;;;12.61;100.00;96238.09;6178748;23;20438;-80
2022/10/16 02:49:24;;;;;;;2.80;2.17;;;;;;;12.51;100.00;96228.00;6178639;23;20947;-80
2022/10/16 02:51:51;;;;;;;2.23;2.03;;;;;;;12.51;100.00;96234.06;6179268;23;20406;-80
2022/10/16 02:54:17;;;;;;;2.57;2.37;;;;;;;12.54;100.00;96228.06;6180438;23;20895;-79
2022/10/16 02:56:44;;;;;;;7.27;2.70;;;;;;;12.47;100.00;96225.25;6201016;23;20471;-80
2022/10/16 02:59:11;;;;;;;2.67;1.90;;;;;;;12.45;100.00;96221.41;6177684;23;20779;-80
2022/10/16 03:01:37;;;;;;;2.10;1.90;;;;;;;12.53;100.00;96244.31;6176828;23;20880;-80
2022/10/16 03:04:04;;;;;;;3.07;2.77;;;;;;;12.40;100.00;96228.47;6176922;23;20383;-80
2022/10/16 03:06:31;;;;;;;4.93;2.60;;;;;;;12.55;100.00;96234.91;6177905;23;20450;-80
2022/10/16 03:08:57;;;;;;;2.50;2.20;;;;;;;12.68;100.00;96264.78;6177369;23;20396;-80
2022/10/16 03:11:24;;;;;;;2.50;1.90;;;;;;;12.22;100.00;96192.81;6185684;23;20878;-80
2022/10/16 03:13:51;;;;;;;9.73;2.90;;;;;;;12.42;100.00;96222.88;6181280;23;20467;-80
2022/10/16 03:16:17;;;;;;;3.03;2.60;;;;;;;12.71;100.00;96262.25;6156928;23;20476;-80
2022/10/16 03:18:49;;;;;;;3.23;2.60;;;;;;;12.38;100.00;96206.84;6181317;23;20415;-81
2022/10/16 03:21:16;;;;;;;2.40;2.20;;;;;;;12.52;100.00;96229.53;6157043;23;20398;-80
2022/10/16 03:23:43;;;;;;;2.60;2.40;;;;;;;12.47;100.00;96229.78;6156961;23;20901;-81
2022/10/16 03:26:09;;;;;;;6.20;2.00;;;;;;;12.20;100.00;96202.22;6181261;23;20478;-80
2022/10/16 03:28:36;;;;;;;1.97;1.87;;;;;;;12.55;100.00;96244.75;6181510;23;20388;-80
2022/10/16 03:31:03;;;;;;;2.10;1.90;;;;;;;12.46;100.00;96233.56;6180753;23;20403;-80
2022/10/16 03:33:29;;;;;;;2.77;2.57;;;;;;;12.63;100.00;96265.81;6155706;23;20396;-80
2022/10/16 03:35:56;;;;;;;2.20;1.83;;;;;;;12.70;100.00;96271.31;6181589;23;20413;-81
2022/10/16 03:38:22;;;;;;;7.20;2.30;;;;;;;12.21;100.00;96185.19;6158069;23;20757;-81
2022/10/16 03:40:49;;;;;;;2.13;2.03;;;;;;;12.67;100.00;96256.06;6180934;23;20414;-80
2022/10/16 03:43:16;;;;;;;2.40;2.20;;;;;;;12.39;100.00;96215.56;6157857;23;20402;-80
2022/10/16 03:45:42;;;;;;;4.50;2.57;;;;;;;12.77;100.00;96275.25;6181419;23;20470;-80
2022/10/16 03:48:09;;;;;;;4.83;1.90;;;;;;;12.19;100.00;96190.84;6157923;23;20460;-81
2022/10/16 03:50:36;;;;;;;2.10;1.90;;;;;;;12.27;100.00;96207.69;6180647;23;20431;-80
2022/10/16 03:53:03;;;;;;;2.20;2.00;;;;;;;12.57;100.00;96261.13;6131831;23;20403;-81
2022/10/16 03:55:30;;;;;;;2.80;2.57;;;;;;;12.49;100.00;96254.84;6131737;23;20417;-81
2022/10/16 03:57:56;;;;;;;4.50;2.20;;;;;;;12.63;100.00;96276.44;6156058;23;20924;-80
2022/10/16 04:00:23;;;;;;;4.00;2.20;;;;;;;12.34;100.00;96223.78;6156235;23;20515;-81
2022/10/16 04:02:49;;;;;;;2.73;2.40;;;;;;;12.63;100.00;96257.88;6180931;23;20887;-81
2022/10/16 04:05:16;;;;;;;4.40;2.27;;;;;;;12.53;100.00;96244.31;6155812;23;20439;-81
2022/10/16 04:07:43;;;;;;;3.37;2.23;;;;;;;12.75;100.00;96274.81;6180262;23;20400;-80
2022/10/16 04:10:09;;;;;;;2.57;2.37;;;;;;;12.58;100.00;96246.75;6180384;23;20462;-81
2022/10/16 04:12:36;;;;;;;3.13;2.37;;;;;;;12.45;100.00;96224.06;6180534;23;20406;-80
2022/10/16 04:15:03;;;;;;;3.13;2.40;;;;;;;12.73;100.00;96281.25;6155745;23;20495;-80
2022/10/16 04:17:29;;;;;;;2.73;2.47;;;;;;;12.43;100.00;96246.38;6155690;23;20396;-80
2022/10/16 04:19:56;;;;;;;3.00;2.30;;;;;;;12.42;100.00;96247.50;6156528;23;20463;-80
2022/10/16 04:22:23;;;;;;;2.03;1.90;;;;;;;12.56;100.00;96268.31;6179804;23;20738;-80
2022/10/16 04:24:49;;;;;;;4.70;2.20;;;;;;;12.77;100.00;96297.25;6154874;23;20431;-80
2022/10/16 04:27:16;;;;;;;4.23;2.00;;;;;;;12.55;100.00;96260.66;6154685;23;20396;-80
2022/10/16 04:29:43;;;;;;;2.03;1.93;;;;;;;12.53;100.00;96260.25;6128960;23;20756;-80
2022/10/16 04:32:09;;;;;;;6.10;2.03;;;;;;;12.73;100.00;96299.06;6128702;23;20893;-80
2022/10/16 04:34:37;;;;;;;2.40;2.20;;;;;;;12.70;100.00;96297.84;6155005;23;20483;-80
2022/10/16 04:37:04;;;;;;;2.30;2.10;;;;;;;12.53;100.00;96268.97;6128477;23;20400;-80
2022/10/16 04:39:31;;;;;;;2.40;1.70;;;;;;;12.63;100.00;96284.41;6154717;23;20929;-81
2022/10/16 04:41:57;;;;;;;2.40;2.10;;;;;;;12.64;100.00;96275.31;6154729;23;20871;-80
2022/10/16 04:44:24;;;;;;;2.40;2.20;;;;;;;12.64;100.00;96283.28;6153070;23;20426;-80
2022/10/16 04:46:51;;;;;;;2.40;2.20;;;;;;;12.37;100.00;96242.44;6177877;23;20435;-80
2022/10/16 04:49:17;;;;;;;6.07;2.50;;;;;;;12.67;100.00;96289.78;6177756;23;20463;-80
2022/10/16 04:51:44;;;;;;;2.60;2.40;;;;;;;12.70;100.00;96297.84;6177744;23;20390;-80
2022/10/16 04:54:11;;;;;;;2.47;2.00;;;;;;;12.51;100.00;96284.44;6177814;23;20406;-80
2022/10/16 04:56:45;;;;;;;3.10;2.20;;;;;;;12.52;100.00;96286.00;6177900;23;20403;-80
2022/10/16 04:59:16;;;;;;;3.90;2.10;;;;;;;12.51;100.00;96283.69;6154498;23;20909;-80
2022/10/16 05:01:43;;;;;;;2.90;2.03;;;;;;;12.74;100.00;96313.84;6152730;23;20413;-80
2022/10/16 05:04:11;;;;;;;3.80;2.83;;;;;;;12.69;100.00;96306.94;6152940;23;20400;-80
2022/10/16 05:06:38;;;;;;;3.47;2.27;;;;;;;12.81;100.00;96314.03;6154389;23;20416;-80
2022/10/16 05:09:05;;;;;;;4.97;1.83;;;;;;;12.80;100.00;96314.38;6152972;23;20490;-80
2022/10/16 05:11:32;;;;;;;2.50;1.90;;;;;;;12.86;100.00;96319.09;6177638;23;20498;-80
2022/10/16 05:13:59;;;;;;;21.10;15.33;;;;;;;12.85;100.00;96312.25;6153141;23;20495;-80
2022/10/16 05:16:26;;;;;;;8.60;4.23;;;;;;;13.06;100.00;96349.16;6177520;23;20499;-79
2022/10/16 05:18:54;;;;;;;2.57;2.23;;;;;;;13.08;100.00;96335.53;6177608;23;20510;-78
2022/10/16 05:21:30;;;;;;;3.70;3.40;;;;;;;12.87;100.00;96306.59;6162526;23;20365;-78
2022/10/16 05:23:56;;;;;;;3.20;3.00;;;;;;;13.02;100.00;96330.50;6144929;23;20410;-78
2022/10/16 05:26:23;;;;;;;2.33;2.10;;;;;;;12.87;100.00;96298.63;6167498;23;20466;-79
2022/10/16 05:28:50;;;;;;;2.33;2.13;;;;;;;12.93;100.00;96318.50;6189446;23;20416;-78
2022/10/16 05:31:16;;;;;;;3.00;2.10;;;;;;;13.09;100.00;96342.38;6166439;23;20435;-78
2022/10/16 05:33:43;;;;;;;2.90;1.83;;;;;;;12.76;100.00;96300.25;6160099;23;20407;-79
2022/10/16 05:36:10;;;;;;;2.80;2.60;;;;;;;12.80;100.00;96301.88;6178371;23;20401;-79
2022/10/16 05:38:37;;;;;;;4.13;2.60;;;;;;;12.80;100.00;96311.72;6178134;23;20494;-79
2022/10/16 05:41:04;;;;;;;4.53;2.47;;;;;;;12.90;100.00;96325.25;6177710;23;20410;-79
2022/10/16 05:43:32;;;;;;;2.50;1.87;;;;;;;12.58;100.00;96282.00;6179382;23;20943;-79
2022/10/16 05:46:04;;;;;;;3.47;1.90;;;;;;;12.96;100.00;96331.88;6157232;23;20815;-79
2022/10/16 05:48:32;;;;;;;2.90;2.20;;;;;;;12.73;100.00;96302.47;6180366;23;20365;-79
2022/10/16 05:51:10;;;;;;;2.57;1.97;;;;;;;12.88;100.00;96319.53;5123139;27;20302;-79
2022/10/16 05:53:38;;;;;;;2.03;1.83;;;;;;;12.88;100.00;96330.13;5092356;28;20506;-80
2022/10/16 05:56:07;;;;;;;5.27;2.50;;;;;;;12.71;100.00;96301.28;5111046;28;20435;-79
2022/10/16 05:58:36;;;;;;;7.50;2.60;;;;;;;12.67;100.00;96306.47;5098063;28;20449;-79
2022/10/16 06:01:05;;;;;;;2.40;2.17;;;;;;;12.42;100.00;96275.91;5065408;28;20523;-79
2022/10/16 06:03:33;;;;;;;2.90;2.70;;;;;;;12.80;100.00;96324.97;5089827;28;20463;-79
2022/10/16 06:06:07;;;;;;;6.10;2.90;;;;;;;12.76;100.00;96337.38;5078908;28;20932;-79
2022/10/16 06:08:38;;;;;;;2.50;2.30;;;;;;;12.69;100.00;96338.00;5089845;28;20443;-79
2022/10/16 06:11:07;;;;;;;2.60;2.40;;;;;;;12.65;100.00;96345.06;5091117;28;20495;-79
2022/10/16 06:13:34;;;;;;;2.80;2.20;;;;;;;12.49;100.00;96331.00;5090368;28;20428;-79
2022/10/16 06:16:03;;;;;;;2.70;2.50;;;;;;;12.48;100.00;96321.50;5091263;28;20424;-79
2022/10/16 06:18:30;;;;;;;2.40;2.20;;;;;;;12.64;100.00;96346.94;5089232;28;20450;-79
2022/10/16 06:20:57;;;;;;;3.40;3.10;;;;;;;12.65;100.00;96358.31;5071786;28;20434;-79
2022/10/16 06:23:24;;;;;;;3.03;2.83;;;;;;;12.69;100.00;96369.81;5088582;28;20509;-80
2022/10/16 06:25:50;;;;;;;2.80;2.20;;;;;;;11.91;100.00;96262.38;5089104;28;20911;-79
2022/10/16 06:28:18;;;;;;;2.67;2.47;;;;;;;12.51;100.00;96350.75;5075287;28;20913;-80
2022/10/16 06:30:45;;;;;;;3.40;2.63;;;;;;;12.75;100.00;96379.06;5080455;28;20462;-79
2022/10/16 06:33:12;;;;;;;3.60;3.40;;;;;;;12.29;100.00;96303.56;5089031;28;20431;-80
2022/10/16 06:35:39;;;;;;;2.87;2.67;;;;;;;12.85;100.00;96369.84;5106020;28;20433;-80
2022/10/16 06:38:06;;;;;;;3.77;2.83;;;;;;;12.81;100.00;96368.97;5088909;28;20420;-80
2022/10/16 06:40:32;;;;;;;2.90;2.60;;;;;;;12.75;100.00;96357.84;5088907;28;20994;-79
2022/10/16 06:42:59;;;;;;;5.43;5.03;;;;;;;12.81;100.00;96363.66;5089666;28;20453;-79
2022/10/16 06:45:25;;;;;;;4.77;3.93;;;;;;;12.83;100.00;96362.25;5077574;28;20428;-80
2022/10/16 06:47:52;;;;;;;3.67;3.37;;;;;;;13.03;100.00;96379.03;5087638;28;20927;-80
2022/10/16 06:50:19;;;;;;;2.87;2.47;;;;;;;13.11;100.00;96390.63;5088619;28;20507;-80
2022/10/16 06:52:45;;;;;;;3.17;2.90;;;;;;;12.68;100.00;96310.66;5088471;28;20515;-80
2022/10/16 06:55:12;;;;;;;6.60;3.30;;;;;;;12.81;100.00;96335.25;5088702;28;20445;-80
2022/10/16 06:57:39;;;;;;;3.93;3.53;;;;;;;13.30;100.00;96404.03;5075237;28;20447;-80
2022/10/16 07:00:06;;;;;;;5.47;3.50;;;;;;;13.30;100.00;96388.09;5079733;28;20463;-80
2022/10/16 07:02:33;;;;;;;3.30;3.10;;;;;;;13.23;100.00;96390.59;5074339;28;20445;-80
2022/10/16 07:04:59;;;;;;;2.50;2.30;;;;;;;13.29;100.00;96413.88;5074963;28;20436;-80
2022/10/16 07:07:26;;;;;;;2.87;2.67;;;;;;;13.32;100.00;96428.34;5076612;28;20434;-80
2022/10/16 07:09:53;;;;;;;5.53;3.93;;;;;;;13.31;100.00;96418.84;5081329;28;20811;-79
2022/10/16 07:12:19;;;;;;;3.40;2.83;;;;;;;13.24;100.00;96431.97;5076097;28;20434;-80
2022/10/16 07:14:46;;;;;;;3.30;3.00;;;;;;;13.39;100.00;96462.31;5074149;28;20439;-80
2022/10/16 07:17:13;;;;;;;5.20;3.80;;;;;;;13.18;100.00;96422.66;5074340;28;20443;-80
2022/10/16 07:19:39;;;;;;;2.90;2.70;;;;;;;13.49;100.00;96456.50;5074188;28;20578;-81
2022/10/16 07:22:06;;;;;;;2.77;2.53;;;;;;;13.11;100.00;96409.22;5063017;28;20552;-80
2022/10/16 07:24:33;;;;;;;12.43;7.30;;;;;;;13.46;100.00;96446.53;5076939;28;20428;-79
2022/10/16 07:26:59;;;;;;;4.10;3.70;;;;;;;13.42;100.00;96453.66;5069966;28;21020;-82
2022/10/16 07:29:26;;;;;;;4.30;4.00;;;;;;;13.13;100.00;96428.22;5069729;28;20495;-82
2022/10/16 07:31:53;;;;;;;3.80;3.50;;;;;;;12.87;100.00;96375.59;5067120;28;20474;-82
2022/10/16 07:34:21;;;;;;;3.60;3.30;;;;;;;12.23;100.00;96287.13;5076220;28;20468;-83
2022/10/16 07:36:50;;;;;;;4.77;3.10;;;;;;;13.30;100.00;96443.84;5092760;28;20486;-82
2022/10/16 07:39:17;;;;;;;3.87;3.57;;;;;;;13.39;100.00;96455.09;5075541;28;20465;-82
2022/10/16 07:41:44;;;;;;;3.10;2.90;;;;;;;13.16;100.00;96398.34;5086302;28;20433;-82
2022/10/16 07:44:11;;;;;;;3.53;3.20;;;;;;;13.49;100.00;96454.63;5062713;28;20432;-82
2022/10/16 07:46:37;;;;;;;6.30;3.70;;;;;;;13.51;100.00;96467.56;5066857;28;20524;-82
2022/10/16 07:49:04;;;;;;;6.10;3.63;;;;;;;13.43;100.00;96463.94;5061014;28;20461;-83
2022/10/16 07:51:31;;;;;;;5.60;3.70;;;;;;;12.98;100.00;96393.34;5070800;28;20490;-82
2022/10/16 07:53:58;;;;;;;5.83;3.37;;;;;;;13.49;100.00;96472.44;5084481;28;20543;-83
2022/10/16 07:56:25;;;;;;;3.40;3.20;;;;;;;13.37;100.00;96449.38;5080050;28;20429;-82
2022/10/16 07:58:52;;;;;;;3.70;3.30;;;;;;;13.57;100.00;96490.09;5070959;28;20456;-83
2022/10/16 08:01:20;;;;;;;3.70;3.50;;;;;;;13.28;100.00;96452.16;5087687;28;20426;-82
2022/10/16 08:03:49;;;;;;;3.50;3.20;;;;;;;13.39;100.00;96467.63;5085388;28;20441;-82
2022/10/16 08:06:18;;;;;;;5.07;4.50;;;;;;;13.45;100.00;96468.91;5090261;28;20444;-83
2022/10/16 08:08:50;;;;;;;5.63;3.20;;;;;;;13.31;100.00;96448.81;5085452;28;20454;-83
2022/10/16 08:11:17;;;;;;;3.83;3.53;;;;;;;13.32;100.00;96460.22;5079615;28;20461;-83
2022/10/16 08:13:44;;;;;;;4.20;3.80;;;;;;;13.76;100.00;96514.13;5073907;28;20519;-83
2022/10/16 08:16:11;;;;;;;11.13;5.70;;;;;;;13.67;100.00;96486.94;5077602;28;20485;-82
2022/10/16 08:18:39;;;;;;;17.27;7.47;;;;;;;13.72;100.00;96484.00;5070365;28;20818;-82
2022/10/16 08:21:11;;;;;;;5.77;5.00;;;;;;;13.40;100.00;96424.00;5084682;28;20509;-82
2022/10/16 08:23:44;;;;;;;3.53;3.23;;;;;;;13.46;100.00;96430.59;5078721;28;20416;-82
2022/10/16 08:26:12;;;;;;;3.90;3.03;;;;;;;14.12;100.00;96513.09;5081539;28;20450;-82
2022/10/16 08:28:39;;;;;;;3.23;2.93;;;;;;;14.05;100.00;96522.78;5075775;28;20465;-82
2022/10/16 08:31:12;;;;;;;4.23;3.70;;;;;;;14.04;100.00;96516.69;5076187;28;20468;-83
2022/10/16 08:33:41;;;;;;;4.40;4.00;;;;;;;14.11;100.00;96514.19;5068622;28;20421;-82
2022/10/16 08:36:10;;;;;;;5.43;4.87;;;;;;;14.23;100.00;96516.00;5072952;28;20448;-82
2022/10/16 08:38:38;;;;;;;3.80;3.50;;;;;;;14.10;100.00;96474.66;5070108;28;20535;-82
2022/10/16 08:41:36;;;;;;;4.20;3.90;;;;;;;14.04;100.00;96452.13;5072288;28;20436;-82
2022/10/16 08:44:41;;;;;;;3.60;3.30;;;;;;;14.54;100.00;96520.53;5071400;28;20523;-83
2022/10/16 08:47:19;;;;;;;5.83;3.00;;;;;;;14.46;100.00;96502.88;5070652;28;20447;-82
2022/10/16 08:50:11;;;;;;;4.23;3.67;;;;;;;14.34;100.00;96487.00;5070298;28;20472;-82
2022/10/16 08:52:44;;;;;;;3.57;3.33;;;;;;;14.48;100.00;96497.97;5076442;28;20455;-82
2022/10/16 08:55:50;;;;;;;3.50;3.20;;;;;;;14.69;100.00;96542.88;5076237;28;20433;-82
2022/10/16 08:58:19;;;;;;;3.67;2.90;;;;;;;14.65;100.00;96523.41;5067981;28;20448;-82
2022/10/16 09:00:50;;;;;;;5.20;2.60;;;;;;;14.39;100.00;96489.38;5075376;28;20869;-82
2022/10/16 09:03:41;;;;;;;4.23;2.77;;;;;;;14.34;100.00;96471.78;5076451;28;20460;-83
2022/10/16 09:06:13;;;;;;;8.33;3.80;;;;;;;15.10;100.00;96560.16;5076990;28;20603;-83
2022/10/16 09:08:55;;;;;;;7.10;4.03;;;;;;;15.14;100.00;96560.97;5061741;28;20440;-83
2022/10/16 09:11:50;;;;;;;4.23;3.00;;;;;;;15.00;100.00;96542.06;5052838;28;20497;-82
2022/10/16 09:14:36;;;;;;;4.13;3.73;;;;;;;15.28;100.00;96565.81;5064937;28;20429;-82
2022/10/16 09:17:12;;;;;;;2.83;2.57;;;;;;;15.18;100.00;96571.72;5074743;28;20995;-82
2022/10/16 09:19:46;;;;;;;7.30;3.13;;;;;;;14.95;100.00;96505.03;5064370;28;20463;-82
2022/10/16 09:22:15;;;;;;;7.90;2.67;;;;;;;15.15;100.00;96522.56;5070344;28;20459;-82
2022/10/16 09:24:42;;;;;;;2.73;2.53;;;;;;;15.73;100.00;96586.50;5074590;28;20892;-82
2022/10/16 09:27:14;;;;;;;3.93;3.03;;;;;;;15.21;100.00;96513.16;5074800;28;20463;-82
2022/10/16 09:29:41;;;;;;;6.33;3.40;;;;;;;15.47;100.00;96531.16;5075910;28;20487;-83
2022/10/16 09:32:14;;;;;;;7.20;4.30;;;;;;;15.75;100.00;96567.50;5075177;28;20472;-83
2022/10/16 09:34:49;;;;;;;11.73;8.10;;;;;;;15.93;100.00;96556.03;5075275;28;20455;-83
2022/10/16 09:37:22;;;;;;;13.60;6.47;;;;;;;16.44;100.00;96597.66;5083402;28;20844;-82
2022/10/16 09:39:52;;;;;;;4.93;4.43;;;;;;;16.32;100.00;96560.50;5075333;28;20456;-82
2022/10/16 09:42:23;;;;;;;4.77;4.27;;;;;;;16.34;100.00;96560.91;5091460;28;20498;-82
2022/10/16 09:44:53;;;;;;;8.83;4.70;;;;;;;16.62;100.00;96608.63;5062286;28;20441;-82
2022/10/16 09:47:23;;;;;;;12.57;8.30;;;;;;;15.89;100.00;96472.53;5075938;28;20869;-82
2022/10/16 09:49:57;;;;;;;9.73;6.60;;;;;;;16.76;100.00;96601.63;5058254;28;20562;-82
2022/10/16 09:52:24;;;;;;;3.33;2.33;;;;;;;16.67;100.00;96584.28;5058112;28;20506;-82
2022/10/16 09:54:56;;;;;;;3.10;2.17;;;;;;;16.19;100.00;96511.88;5063885;28;20460;-82
2022/10/16 09:57:24;;;;;;;2.80;2.33;;;;;;;16.60;100.00;96574.28;5086160;28;20421;-82
2022/10/16 09:59:53;;;;;;;2.77;2.00;;;;;;;16.37;100.00;96515.56;5065989;28;21035;-82
2022/10/16 10:02:30;;;;;;;1.93;1.67;;;;;;;16.23;100.00;96532.13;5074310;28;20826;-82
2022/10/16 10:04:57;;;;;;;6.13;2.17;;;;;;;16.94;100.00;96604.53;5073892;28;20527;-82
2022/10/16 10:07:27;;;;;;;2.20;1.97;;;;;;;16.71;100.00;96603.84;5075136;28;20932;-82
2022/10/16 10:09:57;;;;;;;5.50;4.27;;;;;;;16.90;100.00;96608.28;5073596;28;20479;-82
2022/10/16 10:12:30;;;;;;;3.40;3.10;;;;;;;17.25;100.00;96624.06;5085694;28;20468;-82
2022/10/16 10:15:05;;;;;;;3.30;2.60;;;;;;;16.63;100.00;96560.19;5056575;28;20444;-82
2022/10/16 10:17:31;;;;;;;2.53;2.27;;;;;;;17.10;100.00;96623.88;5074206;28;20420;-82
2022/10/16 10:20:01;;;;;;;5.80;3.23;;;;;;;16.63;100.00;96557.53;5070460;28;20553;-80
2022/10/16 10:22:42;;;;;;;4.37;2.43;;;;;;;17.16;100.00;96624.31;5074002;28;20468;-80
2022/10/16 10:25:12;;;;;;;3.53;2.93;;;;;;;17.04;100.00;96627.97;5078514;28;20435;-80
2022/10/16 10:27:45;;;;;;;2.33;1.80;;;;;;;17.06;100.00;96624.94;5077830;28;20440;-79
2022/10/16 10:30:29;;;;;;;1.90;1.70;;;;;;;17.25;100.00;96621.38;5053242;28;20475;-80
2022/10/16 10:33:21;;;;;;;3.13;1.60;;;;;;;17.42;100.00;96624.28;5082801;28;20429;-79
2022/10/16 10:36:00;;;;;;;1.97;1.60;;;;;;;17.52;100.00;96630.91;5053921;28;20499;-80
2022/10/16 10:38:52;;;;;;;2.27;1.83;;;;;;;17.37;100.00;96583.75;5097567;28;20494;-80
2022/10/16 10:41:48;;;;;;;7.67;1.80;;;;;;;17.48;100.00;96594.53;5086122;28;20505;-80
2022/10/16 10:44:43;;;;;;;3.47;2.07;;;;;;;17.81;100.00;96623.25;5078829;28;20445;-80
2022/10/16 10:47:19;;;;;;;1.97;1.77;;;;;;;17.81;100.00;96621.31;5080332;28;20417;-80
2022/10/16 10:50:07;;;;;;;7.30;1.93;;;;;;;17.71;100.00;96620.06;5078474;28;20462;-82
2022/10/16 10:52:45;;;;;;;5.73;2.50;;;;;;;17.83;100.00;96618.28;5079672;28;20489;-81
2022/10/16 10:55:21;;;;;;;2.40;2.20;;;;;;;18.04;100.00;96613.16;5072897;28;20535;-82
2022/10/16 10:58:10;;;;;;;2.70;1.50;;;;;;;18.05;100.00;96613.94;5066729;28;20439;-81
2022/10/16 11:00:48;;;;;;;2.10;1.80;;;;;;;18.41;100.00;96615.78;5065939;28;20452;-80
2022/10/16 11:03:31;;;;;;;1.83;1.70;;;;;;;18.75;100.00;96623.75;5078021;28;20429;-81
2022/10/16 11:06:09;;;;;;;1.80;1.47;;;;;;;18.77;100.00;96624.91;5067456;28;20452;-80
2022/10/16 11:08:43;;;;;;;3.47;1.80;;;;;;;18.57;100.00;96580.72;5065805;28;20820;-81
2022/10/16 11:11:34;;;;;;;1.50;1.40;;;;;;;18.86;100.00;96632.63;5086881;28;20466;-80
2022/10/16 11:14:22;;;;;;;2.33;1.60;;;;;;;18.74;100.00;96601.53;5065897;28;20432;-80
2022/10/16 11:17:05;;;;;;;2.10;1.90;;;;;;;19.09;100.00;96622.44;5064695;28;20536;-80
2022/10/16 11:20:17;;;;;;;2.70;1.80;;;;;;;17.80;100.00;96434.44;5084823;28;21019;-80
2022/10/16 11:22:52;;;;;;;2.47;1.80;;;;;;;19.00;100.00;96623.91;5020828;28;20505;-81
2022/10/16 11:25:32;;;;;;;3.07;1.93;;;;;;;19.02;100.00;96618.94;4991026;28;20438;-80
2022/10/16 11:28:17;;;;;;;7.27;2.20;;;;;;;18.98;100.00;96621.63;5032852;28;20452;-80
2022/10/16 11:31:10;;;;;;;1.60;1.50;;;;;;;18.75;100.00;96607.66;5011487;28;20949;-80
2022/10/16 11:33:42;;;;;;;2.27;1.77;;;;;;;18.73;100.00;96615.31;5019604;28;20456;-80
2022/10/16 11:36:11;;;;;;;4.53;1.93;;;;;;;18.80;100.00;96623.38;5002372;28;20438;-80
2022/10/16 11:38:54;;;;;;;2.90;2.67;;;;;;;18.79;100.00;96625.31;5019125;28;20437;-80
2022/10/16 11:41:27;;;;;;;2.23;1.80;;;;;;;18.62;100.00;96625.91;5020376;28;20434;-80
2022/10/16 11:44:16;;;;;;;4.47;2.40;;;;;;;18.52;100.00;96621.22;5014292;28;20482;-80